This is the latest recevied weather packets stored in our database for station/object AI5YA-13. If no packets are shown the sender has not sent any weather packets the latest 10 day(s).
| Time | Temp. | Humidity | Pressure | Rain* | Wind** | Luminosity | Snow |
|---|---|---|---|---|---|---|---|
| 1777767728 | 18.33° C | 43% | 1021.2 hPa | 0 mm | - | 51 W/m² | - |
| 1777767424 | 18.89° C | 44% | 1021.1 hPa | 0 mm | - | 58 W/m² | - |
| 1777767120 | 18.89° C | 43% | 1021.1 hPa | 0 mm | - | 61 W/m² | - |
| 1777766818 | 18.89° C | 43% | 1021.1 hPa | 0 mm | - | 140 W/m² | - |
| 1777766515 | 18.89° C | 44% | 1020.9 hPa | 0 mm | - | 146 W/m² | - |
| 1777766212 | 19.44° C | 43% | 1021.2 hPa | 0 mm | - | 171 W/m² | - |
| 1777765910 | 19.44° C | 45% | 1021.1 hPa | 0 mm | - | 186 W/m² | - |
| 1777765606 | 19.44° C | 44% | 1021.3 hPa | 0 mm | - | 198 W/m² | - |
| 1777765304 | 18.89° C | 45% | 1021.2 hPa | 0 mm | - | 159 W/m² | - |
| 1777764999 | 18.89° C | 45% | 1020.9 hPa | 0 mm | - | 95 W/m² | - |
| 1777764696 | 18.89° C | 46% | 1021 hPa | 0 mm | - | 98 W/m² | - |
| 1777764392 | 19.44° C | 43% | 1021.3 hPa | 0 mm | - | 271 W/m² | - |
| 1777764090 | 19.44° C | 45% | 1021.2 hPa | 0 mm | - | 307 W/m² | - |
| 1777763786 | 19.44° C | 43% | 1021.2 hPa | 0 mm | - | 329 W/m² | - |
| 1777763484 | 18.89° C | 44% | 1021.2 hPa | 0 mm | - | 333 W/m² | - |
| 1777763182 | 20° C | 44% | 1021.3 hPa | 0 mm | - | 342 W/m² | - |
| 1777762881 | 20° C | 44% | 1021.5 hPa | 0 mm | - | 365 W/m² | - |
| 1777762575 | 19.44° C | 43% | 1021.1 hPa | 0 mm | - | 367 W/m² | - |
| 1777762273 | 20° C | 43% | 1021.2 hPa | 0 mm | - | 348 W/m² | - |
| 1777761969 | 18.89° C | 45% | 1021.4 hPa | 0 mm | - | 428 W/m² | - |
| 1777761666 | 18.33° C | 44% | 1021.1 hPa | 0 mm | - | 204 W/m² | - |
| 1777761364 | 18.89° C | 45% | 1021.7 hPa | 0 mm | - | 232 W/m² | - |
| 1777761062 | 18.89° C | 45% | 1021.5 hPa | 0 mm | - | 225 W/m² | - |
| 1777760759 | 18.89° C | 45% | 1021.3 hPa | 0 mm | - | 228 W/m² | - |
| 1777760455 | 19.44° C | 42% | 1021.5 hPa | 0 mm | - | 251 W/m² | - |
* Rain latest hour (hover to see other rain measurements)
** Current wind speed in m/s (hover to see current wind gust speed)